sensor_id;sensor_type;location;lat;lon;timestamp;temperature;humidity
3756;DHT22;1893;52.526;13.360;2023-02-28T00:00:19;2.00;99.90
3756;DHT22;1893;52.526;13.360;2023-02-28T00:02:45;2.00;99.90
3756;DHT22;1893;52.526;13.360;2023-02-28T00:05:13;2.00;99.90
3756;DHT22;1893;52.526;13.360;2023-02-28T00:07:39;2.00;99.90
3756;DHT22;1893;52.526;13.360;2023-02-28T00:10:06;2.00;99.90
3756;DHT22;1893;52.526;13.360;2023-02-28T00:12:36;2.00;99.90
3756;DHT22;1893;52.526;13.360;2023-02-28T00:15:05;2.00;99.90
3756;DHT22;1893;52.526;13.360;2023-02-28T00:17:31;2.00;99.90
3756;DHT22;1893;52.526;13.360;2023-02-28T00:19:57;2.00;99.90
3756;DHT22;1893;52.526;13.360;2023-02-28T00:22:27;2.10;99.90
3756;DHT22;1893;52.526;13.360;2023-02-28T00:24:52;2.10;99.90
3756;DHT22;1893;52.526;13.360;2023-02-28T00:27:18;2.10;99.90
3756;DHT22;1893;52.526;13.360;2023-02-28T00:29:43;2.10;99.90
3756;DHT22;1893;52.526;13.360;2023-02-28T00:32:11;2.10;99.90
3756;DHT22;1893;52.526;13.360;2023-02-28T00:34:36;2.10;99.90
3756;DHT22;1893;52.526;13.360;2023-02-28T00:37:04;2.10;99.90
3756;DHT22;1893;52.526;13.360;2023-02-28T00:39:31;2.10;99.90
3756;DHT22;1893;52.526;13.360;2023-02-28T00:41:56;2.10;99.90
3756;DHT22;1893;52.526;13.360;2023-02-28T00:44:22;2.10;99.90
3756;DHT22;1893;52.526;13.360;2023-02-28T00:46:47;2.20;99.90
3756;DHT22;1893;52.526;13.360;2023-02-28T00:49:13;2.10;99.90
3756;DHT22;1893;52.526;13.360;2023-02-28T00:51:39;2.20;99.90
3756;DHT22;1893;52.526;13.360;2023-02-28T00:54:04;2.20;99.90
3756;DHT22;1893;52.526;13.360;2023-02-28T00:56:30;2.20;99.90
3756;DHT22;1893;52.526;13.360;2023-02-28T00:58:56;2.20;99.90
3756;DHT22;1893;52.526;13.360;2023-02-28T01:01:21;2.30;99.90
3756;DHT22;1893;52.526;13.360;2023-02-28T01:03:47;2.30;99.90
3756;DHT22;1893;52.526;13.360;2023-02-28T01:06:12;2.20;99.90
3756;DHT22;1893;52.526;13.360;2023-02-28T01:08:38;2.30;99.90
3756;DHT22;1893;52.526;13.360;2023-02-28T01:11:08;2.30;99.90
3756;DHT22;1893;52.526;13.360;2023-02-28T01:13:34;2.20;99.90
3756;DHT22;1893;52.526;13.360;2023-02-28T01:16:00;2.20;99.90
3756;DHT22;1893;52.526;13.360;2023-02-28T01:18:25;2.20;99.90
3756;DHT22;1893;52.526;13.360;2023-02-28T01:20:51;2.20;99.90
3756;DHT22;1893;52.526;13.360;2023-02-28T01:23:19;2.20;99.90
3756;DHT22;1893;52.526;13.360;2023-02-28T01:25:45;2.20;99.90
3756;DHT22;1893;52.526;13.360;2023-02-28T01:28:10;2.10;99.90
3756;DHT22;1893;52.526;13.360;2023-02-28T01:30:36;2.10;99.90
3756;DHT22;1893;52.526;13.360;2023-02-28T01:33:02;2.00;99.90
3756;DHT22;1893;52.526;13.360;2023-02-28T01:35:27;2.00;99.90
3756;DHT22;1893;52.526;13.360;2023-02-28T01:37:53;2.00;99.90
3756;DHT22;1893;52.526;13.360;2023-02-28T01:40:19;1.90;99.90
3756;DHT22;1893;52.526;13.360;2023-02-28T01:42:44;1.90;99.90
3756;DHT22;1893;52.526;13.360;2023-02-28T01:45:30;1.90;99.90
3756;DHT22;1893;52.526;13.360;2023-02-28T01:48:03;1.80;99.90
3756;DHT22;1893;52.526;13.360;2023-02-28T01:50:36;1.80;99.90
3756;DHT22;1893;52.526;13.360;2023-02-28T01:53:06;1.80;99.90
3756;DHT22;1893;52.526;13.360;2023-02-28T01:55:32;1.80;99.90
3756;DHT22;1893;52.526;13.360;2023-02-28T01:58:00;1.80;99.90
3756;DHT22;1893;52.526;13.360;2023-02-28T02:00:28;1.70;99.90
3756;DHT22;1893;52.526;13.360;2023-02-28T02:03:01;1.70;99.90
3756;DHT22;1893;52.526;13.360;2023-02-28T02:05:30;1.60;99.90
3756;DHT22;1893;52.526;13.360;2023-02-28T02:08:03;1.60;99.90
3756;DHT22;1893;52.526;13.360;2023-02-28T02:16:08;1.40;99.90
3756;DHT22;1893;52.526;13.360;2023-02-28T02:18:52;1.30;99.90
3756;DHT22;1893;52.526;13.360;2023-02-28T02:37:40;0.90;99.90
3756;DHT22;1893;52.526;13.360;2023-02-28T02:40:22;0.80;99.90
3756;DHT22;1893;52.526;13.360;2023-02-28T02:45:58;0.70;99.90
3756;DHT22;1893;52.526;13.360;2023-02-28T02:48:05;0.60;99.90
3756;DHT22;1893;52.526;13.360;2023-02-28T02:50:38;0.60;99.90
3756;DHT22;1893;52.526;13.360;2023-02-28T02:53:07;0.60;99.90
3756;DHT22;1893;52.526;13.360;2023-02-28T02:55:37;0.50;99.90
3756;DHT22;1893;52.526;13.360;2023-02-28T02:58:07;0.40;99.90
3756;DHT22;1893;52.526;13.360;2023-02-28T03:00:38;0.30;99.90
3756;DHT22;1893;52.526;13.360;2023-02-28T03:03:05;0.40;99.90
3756;DHT22;1893;52.526;13.360;2023-02-28T03:05:44;0.20;99.90
3756;DHT22;1893;52.526;13.360;2023-02-28T03:08:11;0.20;99.90
3756;DHT22;1893;52.526;13.360;2023-02-28T03:10:38;0.20;99.90
3756;DHT22;1893;52.526;13.360;2023-02-28T03:19:06;0.10;99.90
3756;DHT22;1893;52.526;13.360;2023-02-28T03:24:49;0.20;99.90
3756;DHT22;1893;52.526;13.360;2023-02-28T03:27:23;0.10;99.90
3756;DHT22;1893;52.526;13.360;2023-02-28T03:30:19;0.00;99.90
3756;DHT22;1893;52.526;13.360;2023-02-28T03:32:59;0.10;99.90
3756;DHT22;1893;52.526;13.360;2023-02-28T03:35:34;0.10;99.90
3756;DHT22;1893;52.526;13.360;2023-02-28T03:38:16;0.10;99.90
3756;DHT22;1893;52.526;13.360;2023-02-28T03:43:12;0.00;99.90
3756;DHT22;1893;52.526;13.360;2023-02-28T03:45:41;0.00;99.90
3756;DHT22;1893;52.526;13.360;2023-02-28T03:48:18;-0.10;99.90
3756;DHT22;1893;52.526;13.360;2023-02-28T03:50:47;-0.10;99.90
3756;DHT22;1893;52.526;13.360;2023-02-28T03:53:15;-0.10;99.90
3756;DHT22;1893;52.526;13.360;2023-02-28T03:55:45;-0.10;99.90
3756;DHT22;1893;52.526;13.360;2023-02-28T04:01:14;0.00;99.90
3756;DHT22;1893;52.526;13.360;2023-02-28T04:03:41;-0.20;99.90
3756;DHT22;1893;52.526;13.360;2023-02-28T04:06:12;-0.10;99.90
3756;DHT22;1893;52.526;13.360;2023-02-28T04:08:38;-0.20;99.90
3756;DHT22;1893;52.526;13.360;2023-02-28T04:13:46;-0.40;99.90
3756;DHT22;1893;52.526;13.360;2023-02-28T04:16:11;-0.40;99.90
3756;DHT22;1893;52.526;13.360;2023-02-28T04:18:41;-0.50;99.90
3756;DHT22;1893;52.526;13.360;2023-02-28T04:21:09;-0.50;99.90
3756;DHT22;1893;52.526;13.360;2023-02-28T04:23:34;-0.50;99.90
3756;DHT22;1893;52.526;13.360;2023-02-28T04:26:00;-0.50;99.90
3756;DHT22;1893;52.526;13.360;2023-02-28T04:28:26;-0.60;99.90
3756;DHT22;1893;52.526;13.360;2023-02-28T04:31:00;-0.60;99.90
3756;DHT22;1893;52.526;13.360;2023-02-28T04:33:26;-0.50;99.90
3756;DHT22;1893;52.526;13.360;2023-02-28T04:35:59;-0.50;99.90
3756;DHT22;1893;52.526;13.360;2023-02-28T04:38:25;-0.50;99.90
3756;DHT22;1893;52.526;13.360;2023-02-28T04:40:50;-0.50;99.90
3756;DHT22;1893;52.526;13.360;2023-02-28T04:43:16;-0.50;99.90
3756;DHT22;1893;52.526;13.360;2023-02-28T04:45:41;-0.50;99.90
3756;DHT22;1893;52.526;13.360;2023-02-28T04:48:07;-0.50;99.90
3756;DHT22;1893;52.526;13.360;2023-02-28T04:50:34;-0.50;99.90
3756;DHT22;1893;52.526;13.360;2023-02-28T04:52:59;-0.40;99.90
3756;DHT22;1893;52.526;13.360;2023-02-28T04:55:25;-0.60;99.90
3756;DHT22;1893;52.526;13.360;2023-02-28T04:57:50;-0.70;99.90
3756;DHT22;1893;52.526;13.360;2023-02-28T05:00:16;-0.80;99.90
3756;DHT22;1893;52.526;13.360;2023-02-28T05:02:42;-0.80;99.90
3756;DHT22;1893;52.526;13.360;2023-02-28T05:05:08;-0.70;99.90
3756;DHT22;1893;52.526;13.360;2023-02-28T05:07:34;-0.80;99.90
3756;DHT22;1893;52.526;13.360;2023-02-28T05:09:59;-0.80;99.90
3756;DHT22;1893;52.526;13.360;2023-02-28T05:12:25;-0.90;99.90
3756;DHT22;1893;52.526;13.360;2023-02-28T05:14:51;-0.80;99.90
3756;DHT22;1893;52.526;13.360;2023-02-28T05:17:16;-0.80;99.90
3756;DHT22;1893;52.526;13.360;2023-02-28T05:19:42;-0.90;99.90
3756;DHT22;1893;52.526;13.360;2023-02-28T05:22:14;-0.90;99.90
3756;DHT22;1893;52.526;13.360;2023-02-28T05:24:41;-0.90;99.90
3756;DHT22;1893;52.526;13.360;2023-02-28T05:27:07;-0.80;99.90
3756;DHT22;1893;52.526;13.360;2023-02-28T05:29:33;-0.80;99.90
3756;DHT22;1893;52.526;13.360;2023-02-28T05:31:59;-0.90;99.90
3756;DHT22;1893;52.526;13.360;2023-02-28T05:34:25;-0.70;99.90
3756;DHT22;1893;52.526;13.360;2023-02-28T05:36:51;-0.70;99.90
3756;DHT22;1893;52.526;13.360;2023-02-28T05:39:16;-0.70;99.90
3756;DHT22;1893;52.526;13.360;2023-02-28T05:41:42;-0.80;99.90
3756;DHT22;1893;52.526;13.360;2023-02-28T05:44:09;-0.80;99.90
3756;DHT22;1893;52.526;13.360;2023-02-28T05:46:34;-0.90;99.90
3756;DHT22;1893;52.526;13.360;2023-02-28T05:49:00;-0.80;99.90
3756;DHT22;1893;52.526;13.360;2023-02-28T05:51:26;-0.90;99.90
3756;DHT22;1893;52.526;13.360;2023-02-28T05:53:52;-0.80;99.90
3756;DHT22;1893;52.526;13.360;2023-02-28T05:56:17;-0.90;99.90
3756;DHT22;1893;52.526;13.360;2023-02-28T05:58:43;-0.90;99.90
3756;DHT22;1893;52.526;13.360;2023-02-28T06:01:33;-0.80;99.90
3756;DHT22;1893;52.526;13.360;2023-02-28T06:04:00;-0.80;99.90
3756;DHT22;1893;52.526;13.360;2023-02-28T06:06:26;-0.80;99.90
3756;DHT22;1893;52.526;13.360;2023-02-28T06:08:51;-0.90;99.90
3756;DHT22;1893;52.526;13.360;2023-02-28T06:11:17;-0.80;99.90
3756;DHT22;1893;52.526;13.360;2023-02-28T06:13:45;-0.80;99.90
3756;DHT22;1893;52.526;13.360;2023-02-28T06:16:11;-0.90;99.90
3756;DHT22;1893;52.526;13.360;2023-02-28T06:18:37;-0.90;99.90
3756;DHT22;1893;52.526;13.360;2023-02-28T06:21:02;-0.90;99.90
3756;DHT22;1893;52.526;13.360;2023-02-28T06:23:28;-0.80;99.90
3756;DHT22;1893;52.526;13.360;2023-02-28T06:25:53;-0.80;99.90
3756;DHT22;1893;52.526;13.360;2023-02-28T06:28:23;-0.90;99.90
3756;DHT22;1893;52.526;13.360;2023-02-28T06:30:48;-0.90;99.90
3756;DHT22;1893;52.526;13.360;2023-02-28T06:33:14;-0.80;99.90
3756;DHT22;1893;52.526;13.360;2023-02-28T06:35:39;-0.80;99.90
3756;DHT22;1893;52.526;13.360;2023-02-28T06:38:05;-0.80;99.90
3756;DHT22;1893;52.526;13.360;2023-02-28T06:40:30;-0.70;99.90
3756;DHT22;1893;52.526;13.360;2023-02-28T06:42:59;-0.70;99.90
3756;DHT22;1893;52.526;13.360;2023-02-28T06:45:24;-0.60;99.90
3756;DHT22;1893;52.526;13.360;2023-02-28T06:47:51;-0.40;99.90
3756;DHT22;1893;52.526;13.360;2023-02-28T06:50:18;-0.30;99.90
3756;DHT22;1893;52.526;13.360;2023-02-28T06:52:44;-0.10;99.90
3756;DHT22;1893;52.526;13.360;2023-02-28T06:55:10;0.30;99.90
3756;DHT22;1893;52.526;13.360;2023-02-28T06:57:36;0.70;99.90
3756;DHT22;1893;52.526;13.360;2023-02-28T07:00:05;1.20;99.90
3756;DHT22;1893;52.526;13.360;2023-02-28T07:02:33;2.00;99.90
3756;DHT22;1893;52.526;13.360;2023-02-28T07:04:59;2.30;99.90
3756;DHT22;1893;52.526;13.360;2023-02-28T07:07:25;2.70;99.90
3756;DHT22;1893;52.526;13.360;2023-02-28T07:09:50;2.90;99.90
3756;DHT22;1893;52.526;13.360;2023-02-28T07:12:16;2.70;99.90
3756;DHT22;1893;52.526;13.360;2023-02-28T07:14:41;2.80;99.90
3756;DHT22;1893;52.526;13.360;2023-02-28T07:17:08;2.80;99.90
3756;DHT22;1893;52.526;13.360;2023-02-28T07:19:34;3.30;99.90
3756;DHT22;1893;52.526;13.360;2023-02-28T07:22:00;3.60;99.90
3756;DHT22;1893;52.526;13.360;2023-02-28T07:24:26;4.20;99.90
3756;DHT22;1893;52.526;13.360;2023-02-28T07:26:53;4.30;99.90
3756;DHT22;1893;52.526;13.360;2023-02-28T07:29:19;4.70;99.90
3756;DHT22;1893;52.526;13.360;2023-02-28T07:31:44;5.00;99.90
3756;DHT22;1893;52.526;13.360;2023-02-28T07:34:12;5.00;99.90
3756;DHT22;1893;52.526;13.360;2023-02-28T07:36:38;5.70;99.90
3756;DHT22;1893;52.526;13.360;2023-02-28T07:39:03;5.90;99.90
3756;DHT22;1893;52.526;13.360;2023-02-28T07:41:30;5.90;99.90
3756;DHT22;1893;52.526;13.360;2023-02-28T07:43:59;6.00;99.90
3756;DHT22;1893;52.526;13.360;2023-02-28T07:46:26;5.80;99.90
3756;DHT22;1893;52.526;13.360;2023-02-28T07:48:52;6.20;99.90
3756;DHT22;1893;52.526;13.360;2023-02-28T07:51:18;6.40;99.90
3756;DHT22;1893;52.526;13.360;2023-02-28T07:53:44;5.90;99.90
3756;DHT22;1893;52.526;13.360;2023-02-28T07:56:10;6.30;99.90
3756;DHT22;1893;52.526;13.360;2023-02-28T07:58:36;6.30;99.90
3756;DHT22;1893;52.526;13.360;2023-02-28T08:01:10;6.70;99.90
3756;DHT22;1893;52.526;13.360;2023-02-28T08:03:36;6.70;99.90
3756;DHT22;1893;52.526;13.360;2023-02-28T08:06:04;6.50;99.90
3756;DHT22;1893;52.526;13.360;2023-02-28T08:08:30;5.90;99.90
3756;DHT22;1893;52.526;13.360;2023-02-28T08:11:00;5.50;99.90
3756;DHT22;1893;52.526;13.360;2023-02-28T08:13:27;5.70;99.90
3756;DHT22;1893;52.526;13.360;2023-02-28T08:15:54;5.50;99.90
3756;DHT22;1893;52.526;13.360;2023-02-28T08:18:20;5.20;99.90
3756;DHT22;1893;52.526;13.360;2023-02-28T08:20:46;5.10;99.90
3756;DHT22;1893;52.526;13.360;2023-02-28T08:23:11;5.10;99.90
3756;DHT22;1893;52.526;13.360;2023-02-28T08:25:37;5.20;99.90
3756;DHT22;1893;52.526;13.360;2023-02-28T08:28:03;5.10;99.90
3756;DHT22;1893;52.526;13.360;2023-02-28T08:30:28;5.30;99.90
3756;DHT22;1893;52.526;13.360;2023-02-28T08:32:54;5.50;99.90
3756;DHT22;1893;52.526;13.360;2023-02-28T08:35:20;5.60;99.90
3756;DHT22;1893;52.526;13.360;2023-02-28T08:37:48;6.20;99.90
3756;DHT22;1893;52.526;13.360;2023-02-28T08:40:14;6.00;99.90
3756;DHT22;1893;52.526;13.360;2023-02-28T08:42:46;6.20;99.90
3756;DHT22;1893;52.526;13.360;2023-02-28T08:45:14;6.00;99.90
3756;DHT22;1893;52.526;13.360;2023-02-28T08:47:40;5.60;99.90
3756;DHT22;1893;52.526;13.360;2023-02-28T08:50:07;5.30;99.90
3756;DHT22;1893;52.526;13.360;2023-02-28T08:52:33;5.40;99.90
3756;DHT22;1893;52.526;13.360;2023-02-28T08:54:58;5.70;99.90
3756;DHT22;1893;52.526;13.360;2023-02-28T08:57:24;6.00;99.90
3756;DHT22;1893;52.526;13.360;2023-02-28T08:59:52;6.00;99.90
3756;DHT22;1893;52.526;13.360;2023-02-28T09:02:17;6.10;99.90
3756;DHT22;1893;52.526;13.360;2023-02-28T09:04:43;7.00;99.90
3756;DHT22;1893;52.526;13.360;2023-02-28T09:07:11;7.50;99.80
3756;DHT22;1893;52.526;13.360;2023-02-28T09:09:36;8.40;98.20
3756;DHT22;1893;52.526;13.360;2023-02-28T09:12:02;8.40;95.40
3756;DHT22;1893;52.526;13.360;2023-02-28T09:14:28;8.70;93.70
3756;DHT22;1893;52.526;13.360;2023-02-28T09:16:54;9.00;93.10
3756;DHT22;1893;52.526;13.360;2023-02-28T09:19:20;9.00;88.20
3756;DHT22;1893;52.526;13.360;2023-02-28T09:21:46;8.90;89.70
3756;DHT22;1893;52.526;13.360;2023-02-28T09:24:11;9.20;87.80
3756;DHT22;1893;52.526;13.360;2023-02-28T09:26:39;9.00;83.80
3756;DHT22;1893;52.526;13.360;2023-02-28T09:29:06;9.20;84.50
3756;DHT22;1893;52.526;13.360;2023-02-28T09:31:32;9.50;81.50
3756;DHT22;1893;52.526;13.360;2023-02-28T09:33:58;9.50;80.70
3756;DHT22;1893;52.526;13.360;2023-02-28T09:36:27;9.20;79.20
3756;DHT22;1893;52.526;13.360;2023-02-28T09:38:53;9.10;81.10
3756;DHT22;1893;52.526;13.360;2023-02-28T09:41:23;9.20;75.30
3756;DHT22;1893;52.526;13.360;2023-02-28T09:43:54;9.40;75.90
3756;DHT22;1893;52.526;13.360;2023-02-28T09:46:38;8.80;72.20
3756;DHT22;1893;52.526;13.360;2023-02-28T09:49:22;8.60;75.10
3756;DHT22;1893;52.526;13.360;2023-02-28T09:51:56;8.10;74.10
3756;DHT22;1893;52.526;13.360;2023-02-28T09:54:26;7.90;74.40
3756;DHT22;1893;52.526;13.360;2023-02-28T09:56:53;8.70;75.90
3756;DHT22;1893;52.526;13.360;2023-02-28T09:59:54;9.30;77.60
3756;DHT22;1893;52.526;13.360;2023-02-28T10:05:12;10.50;75.40
3756;DHT22;1893;52.526;13.360;2023-02-28T10:10:41;11.70;67.40
3756;DHT22;1893;52.526;13.360;2023-02-28T10:13:32;12.00;62.80
3756;DHT22;1893;52.526;13.360;2023-02-28T10:16:09;11.70;63.40
3756;DHT22;1893;52.526;13.360;2023-02-28T10:18:49;11.60;62.60
3756;DHT22;1893;52.526;13.360;2023-02-28T10:21:26;11.50;61.20
3756;DHT22;1893;52.526;13.360;2023-02-28T10:24:02;12.10;60.70
3756;DHT22;1893;52.526;13.360;2023-02-28T10:26:29;12.20;56.60
3756;DHT22;1893;52.526;13.360;2023-02-28T10:28:56;12.20;54.00
3756;DHT22;1893;52.526;13.360;2023-02-28T10:31:21;12.30;55.30
3756;DHT22;1893;52.526;13.360;2023-02-28T10:33:48;12.20;55.90
3756;DHT22;1893;52.526;13.360;2023-02-28T10:36:19;11.90;54.00
3756;DHT22;1893;52.526;13.360;2023-02-28T10:38:46;11.60;54.80
3756;DHT22;1893;52.526;13.360;2023-02-28T10:41:15;11.90;54.90
3756;DHT22;1893;52.526;13.360;2023-02-28T10:43:42;10.90;53.80
3756;DHT22;1893;52.526;13.360;2023-02-28T10:48:43;10.30;54.20
3756;DHT22;1893;52.526;13.360;2023-02-28T10:51:15;10.70;54.50
3756;DHT22;1893;52.526;13.360;2023-02-28T10:53:55;11.50;56.70
3756;DHT22;1893;52.526;13.360;2023-02-28T10:56:22;12.20;55.00
3756;DHT22;1893;52.526;13.360;2023-02-28T11:01:43;12.50;53.30
3756;DHT22;1893;52.526;13.360;2023-02-28T11:07:20;11.40;52.80
3756;DHT22;1893;52.526;13.360;2023-02-28T11:09:48;12.50;54.70
3756;DHT22;1893;52.526;13.360;2023-02-28T11:12:41;13.10;49.60
3756;DHT22;1893;52.526;13.360;2023-02-28T11:15:34;13.10;50.50
3756;DHT22;1893;52.526;13.360;2023-02-28T11:20:50;14.00;49.50
3756;DHT22;1893;52.526;13.360;2023-02-28T11:23:18;14.60;48.00
3756;DHT22;1893;52.526;13.360;2023-02-28T11:25:51;14.20;46.20
3756;DHT22;1893;52.526;13.360;2023-02-28T11:28:34;14.00;45.80
3756;DHT22;1893;52.526;13.360;2023-02-28T11:33:50;13.50;45.70
3756;DHT22;1893;52.526;13.360;2023-02-28T11:36:22;13.90;44.40
3756;DHT22;1893;52.526;13.360;2023-02-28T11:38:55;14.80;42.80
3756;DHT22;1893;52.526;13.360;2023-02-28T11:41:50;14.70;43.30
3756;DHT22;1893;52.526;13.360;2023-02-28T11:46:54;14.20;44.00
3756;DHT22;1893;52.526;13.360;2023-02-28T12:06:41;12.00;44.90
3756;DHT22;1893;52.526;13.360;2023-02-28T12:09:30;12.50;43.40
3756;DHT22;1893;52.526;13.360;2023-02-28T12:20:41;11.30;43.70
3756;DHT22;1893;52.526;13.360;2023-02-28T12:26:07;12.60;47.70
3756;DHT22;1893;52.526;13.360;2023-02-28T12:28:41;12.30;43.60
3756;DHT22;1893;52.526;13.360;2023-02-28T12:31:26;13.30;44.90
3756;DHT22;1893;52.526;13.360;2023-02-28T12:33:59;13.50;46.60
3756;DHT22;1893;52.526;13.360;2023-02-28T12:36:27;14.10;44.20
3756;DHT22;1893;52.526;13.360;2023-02-28T12:39:20;14.70;43.90
3756;DHT22;1893;52.526;13.360;2023-02-28T12:41:51;14.50;41.40
3756;DHT22;1893;52.526;13.360;2023-02-28T12:44:22;14.50;42.10
3756;DHT22;1893;52.526;13.360;2023-02-28T12:46:51;12.90;40.20
3756;DHT22;1893;52.526;13.360;2023-02-28T12:49:24;12.60;43.20
3756;DHT22;1893;52.526;13.360;2023-02-28T12:51:50;13.30;42.80
3756;DHT22;1893;52.526;13.360;2023-02-28T12:57:30;13.10;41.20
3756;DHT22;1893;52.526;13.360;2023-02-28T13:00:04;13.70;43.60
3756;DHT22;1893;52.526;13.360;2023-02-28T13:05:26;13.80;39.40
3756;DHT22;1893;52.526;13.360;2023-02-28T13:07:58;13.70;42.70
3756;DHT22;1893;52.526;13.360;2023-02-28T13:10:58;14.10;40.40
3756;DHT22;1893;52.526;13.360;2023-02-28T13:13:26;14.40;40.50
3756;DHT22;1893;52.526;13.360;2023-02-28T13:16:09;14.20;41.70
3756;DHT22;1893;52.526;13.360;2023-02-28T13:19:08;14.00;41.00
3756;DHT22;1893;52.526;13.360;2023-02-28T13:21:43;13.70;40.10
3756;DHT22;1893;52.526;13.360;2023-02-28T13:24:10;14.00;40.80
3756;DHT22;1893;52.526;13.360;2023-02-28T13:40:36;12.90;41.20
3756;DHT22;1893;52.526;13.360;2023-02-28T13:42:47;13.90;39.40
3756;DHT22;1893;52.526;13.360;2023-02-28T13:45:30;13.30;38.40
3756;DHT22;1893;52.526;13.360;2023-02-28T13:47:59;13.20;40.30
3756;DHT22;1893;52.526;13.360;2023-02-28T14:06:33;10.90;43.10
3756;DHT22;1893;52.526;13.360;2023-02-28T14:09:05;11.60;41.80
3756;DHT22;1893;52.526;13.360;2023-02-28T14:11:38;12.10;41.60
3756;DHT22;1893;52.526;13.360;2023-02-28T14:14:06;11.80;41.90
3756;DHT22;1893;52.526;13.360;2023-02-28T14:16:50;12.10;41.60
3756;DHT22;1893;52.526;13.360;2023-02-28T14:19:23;12.40;40.10
3756;DHT22;1893;52.526;13.360;2023-02-28T14:25:18;12.30;40.40
3756;DHT22;1893;52.526;13.360;2023-02-28T14:36:06;11.20;40.10
3756;DHT22;1893;52.526;13.360;2023-02-28T14:38:55;11.10;41.90
3756;DHT22;1893;52.526;13.360;2023-02-28T14:41:34;11.30;42.10
3756;DHT22;1893;52.526;13.360;2023-02-28T14:44:21;9.90;41.40
3756;DHT22;1893;52.526;13.360;2023-02-28T14:46:50;8.80;44.50
3756;DHT22;1893;52.526;13.360;2023-02-28T14:52:06;8.20;45.40
3756;DHT22;1893;52.526;13.360;2023-02-28T14:54:36;7.90;45.40
3756;DHT22;1893;52.526;13.360;2023-02-28T14:57:02;7.70;46.00
3756;DHT22;1893;52.526;13.360;2023-02-28T14:59:31;7.10;46.30
3756;DHT22;1893;52.526;13.360;2023-02-28T15:02:21;7.00;48.60
3756;DHT22;1893;52.526;13.360;2023-02-28T15:05:19;6.70;47.30
3756;DHT22;1893;52.526;13.360;2023-02-28T15:07:44;6.60;48.30
3756;DHT22;1893;52.526;13.360;2023-02-28T15:12:51;6.60;51.10
3756;DHT22;1893;52.526;13.360;2023-02-28T15:15:19;6.70;51.90
3756;DHT22;1893;52.526;13.360;2023-02-28T15:17:49;6.50;51.90
3756;DHT22;1893;52.526;13.360;2023-02-28T15:20:16;6.40;53.20
3756;DHT22;1893;52.526;13.360;2023-02-28T15:22:42;6.30;53.50
3756;DHT22;1893;52.526;13.360;2023-02-28T15:25:14;6.30;54.50
3756;DHT22;1893;52.526;13.360;2023-02-28T15:27:45;6.10;53.60
3756;DHT22;1893;52.526;13.360;2023-02-28T15:30:20;5.90;52.80
3756;DHT22;1893;52.526;13.360;2023-02-28T15:33:24;5.90;53.80
3756;DHT22;1893;52.526;13.360;2023-02-28T15:35:48;5.90;56.20
3756;DHT22;1893;52.526;13.360;2023-02-28T15:40:44;5.80;56.10
3756;DHT22;1893;52.526;13.360;2023-02-28T15:43:14;5.80;56.70
3756;DHT22;1893;52.526;13.360;2023-02-28T15:45:44;5.70;56.90
3756;DHT22;1893;52.526;13.360;2023-02-28T15:50:49;5.70;57.00
3756;DHT22;1893;52.526;13.360;2023-02-28T15:53:17;5.70;57.40
3756;DHT22;1893;52.526;13.360;2023-02-28T15:55:44;5.70;57.60
3756;DHT22;1893;52.526;13.360;2023-02-28T15:58:12;5.70;58.60
3756;DHT22;1893;52.526;13.360;2023-02-28T16:00:39;5.60;58.40
3756;DHT22;1893;52.526;13.360;2023-02-28T16:03:27;5.60;58.60
3756;DHT22;1893;52.526;13.360;2023-02-28T16:08:57;5.40;59.10
3756;DHT22;1893;52.526;13.360;2023-02-28T16:11:22;5.40;59.50
3756;DHT22;1893;52.526;13.360;2023-02-28T16:13:49;5.30;61.90
3756;DHT22;1893;52.526;13.360;2023-02-28T16:16:20;5.20;60.40
3756;DHT22;1893;52.526;13.360;2023-02-28T16:18:46;5.10;61.20
3756;DHT22;1893;52.526;13.360;2023-02-28T16:21:12;5.10;61.90
3756;DHT22;1893;52.526;13.360;2023-02-28T16:23:37;5.00;62.90
3756;DHT22;1893;52.526;13.360;2023-02-28T16:26:04;5.00;64.00
3756;DHT22;1893;52.526;13.360;2023-02-28T16:28:33;5.00;64.70
3756;DHT22;1893;52.526;13.360;2023-02-28T16:31:00;4.80;65.80
3756;DHT22;1893;52.526;13.360;2023-02-28T16:33:31;4.80;66.50
3756;DHT22;1893;52.526;13.360;2023-02-28T16:35:58;4.90;66.70
3756;DHT22;1893;52.526;13.360;2023-02-28T16:38:24;4.80;66.60
3756;DHT22;1893;52.526;13.360;2023-02-28T16:40:51;4.70;66.60
3756;DHT22;1893;52.526;13.360;2023-02-28T16:43:19;4.70;68.00
3756;DHT22;1893;52.526;13.360;2023-02-28T16:45:47;4.70;68.30
3756;DHT22;1893;52.526;13.360;2023-02-28T16:48:15;4.70;69.20
3756;DHT22;1893;52.526;13.360;2023-02-28T16:50:41;4.50;69.80
3756;DHT22;1893;52.526;13.360;2023-02-28T16:53:07;4.40;68.70
3756;DHT22;1893;52.526;13.360;2023-02-28T16:55:34;4.40;70.50
3756;DHT22;1893;52.526;13.360;2023-02-28T16:58:01;4.30;69.60
3756;DHT22;1893;52.526;13.360;2023-02-28T17:00:29;4.30;69.80
3756;DHT22;1893;52.526;13.360;2023-02-28T17:02:55;4.30;69.90
3756;DHT22;1893;52.526;13.360;2023-02-28T17:05:22;4.20;70.70
3756;DHT22;1893;52.526;13.360;2023-02-28T17:07:48;4.10;70.10
3756;DHT22;1893;52.526;13.360;2023-02-28T17:10:23;4.10;70.50
3756;DHT22;1893;52.526;13.360;2023-02-28T17:12:50;4.00;70.60
3756;DHT22;1893;52.526;13.360;2023-02-28T17:15:18;4.10;70.70
3756;DHT22;1893;52.526;13.360;2023-02-28T17:17:44;3.90;72.20
3756;DHT22;1893;52.526;13.360;2023-02-28T17:20:13;3.90;71.80
3756;DHT22;1893;52.526;13.360;2023-02-28T17:22:39;3.80;72.00
3756;DHT22;1893;52.526;13.360;2023-02-28T17:25:05;3.80;72.20
3756;DHT22;1893;52.526;13.360;2023-02-28T17:27:31;3.80;73.00
3756;DHT22;1893;52.526;13.360;2023-02-28T17:29:56;3.80;72.60
3756;DHT22;1893;52.526;13.360;2023-02-28T17:32:22;3.70;73.00
3756;DHT22;1893;52.526;13.360;2023-02-28T17:34:47;3.70;73.70
3756;DHT22;1893;52.526;13.360;2023-02-28T17:37:13;3.50;73.50
3756;DHT22;1893;52.526;13.360;2023-02-28T17:39:38;3.50;75.10
3756;DHT22;1893;52.526;13.360;2023-02-28T17:42:04;3.40;74.60
3756;DHT22;1893;52.526;13.360;2023-02-28T17:44:30;3.40;75.50
3756;DHT22;1893;52.526;13.360;2023-02-28T17:46:55;3.50;76.20
3756;DHT22;1893;52.526;13.360;2023-02-28T17:49:22;3.40;75.90
3756;DHT22;1893;52.526;13.360;2023-02-28T17:51:48;3.50;76.10
3756;DHT22;1893;52.526;13.360;2023-02-28T17:54:14;3.50;76.40
3756;DHT22;1893;52.526;13.360;2023-02-28T17:56:40;3.50;75.80
3756;DHT22;1893;52.526;13.360;2023-02-28T17:59:09;3.50;76.00
3756;DHT22;1893;52.526;13.360;2023-02-28T18:01:35;3.40;77.00
3756;DHT22;1893;52.526;13.360;2023-02-28T18:04:00;3.40;77.10
3756;DHT22;1893;52.526;13.360;2023-02-28T18:06:30;3.40;77.70
3756;DHT22;1893;52.526;13.360;2023-02-28T18:08:58;3.40;77.90
3756;DHT22;1893;52.526;13.360;2023-02-28T18:11:24;3.30;79.40
3756;DHT22;1893;52.526;13.360;2023-02-28T18:13:52;3.30;79.00
3756;DHT22;1893;52.526;13.360;2023-02-28T18:16:20;3.30;79.20
3756;DHT22;1893;52.526;13.360;2023-02-28T18:18:47;3.20;79.50
3756;DHT22;1893;52.526;13.360;2023-02-28T18:21:14;3.30;80.10
3756;DHT22;1893;52.526;13.360;2023-02-28T18:23:41;3.20;80.60
3756;DHT22;1893;52.526;13.360;2023-02-28T18:26:13;3.20;80.50
3756;DHT22;1893;52.526;13.360;2023-02-28T18:28:39;3.20;81.80
3756;DHT22;1893;52.526;13.360;2023-02-28T18:31:11;3.20;81.20
3756;DHT22;1893;52.526;13.360;2023-02-28T18:33:38;3.10;82.90
3756;DHT22;1893;52.526;13.360;2023-02-28T18:36:04;3.10;83.80
3756;DHT22;1893;52.526;13.360;2023-02-28T18:38:31;3.00;84.40
3756;DHT22;1893;52.526;13.360;2023-02-28T18:41:00;3.10;84.30